createdAt,value
2022-10-06T00:01:03.763Z,88.69
2022-10-06T00:03:31.067Z,88.98
2022-10-06T00:06:02.625Z,88.97
2022-10-06T00:08:31.476Z,89.14
2022-10-06T00:10:58.315Z,88.85
2022-10-06T00:13:26.068Z,88.92
2022-10-06T00:15:53.011Z,89.00
2022-10-06T00:18:19.755Z,88.82
2022-10-06T00:20:53.880Z,88.54
2022-10-06T00:23:21.166Z,88.32
2022-10-06T00:25:47.589Z,88.42
2022-10-06T00:28:14.244Z,88.44
2022-10-06T00:30:40.805Z,88.16
2022-10-06T00:33:07.335Z,88.25
2022-10-06T00:35:34.636Z,87.77
2022-10-06T00:38:01.868Z,87.92
2022-10-06T00:40:29.732Z,87.89
2022-10-06T00:42:59.390Z,88.02
2022-10-06T00:45:39.755Z,87.54
2022-10-06T00:48:12.900Z,87.67
2022-10-06T00:50:40.513Z,87.33
2022-10-06T00:53:07.621Z,87.33
2022-10-06T00:55:34.258Z,87.31
2022-10-06T00:58:01.311Z,87.22
2022-10-06T01:00:28.502Z,87.16
2022-10-06T01:02:59.172Z,87.19
2022-10-06T01:05:30.566Z,87.35
2022-10-06T01:07:57.716Z,87.51
2022-10-06T01:10:24.376Z,87.63
2022-10-06T01:12:52.117Z,87.90
2022-10-06T01:15:21.534Z,88.14
2022-10-06T01:18:15.053Z,87.81
2022-10-06T01:21:05.550Z,88.08
2022-10-06T01:23:33.487Z,88.06
2022-10-06T01:26:03.660Z,88.09
2022-10-06T01:28:30.854Z,87.95
2022-10-06T01:31:00.848Z,87.80
2022-10-06T01:33:29.778Z,87.84
2022-10-06T01:35:56.512Z,88.15
2022-10-06T01:38:23.444Z,88.29
2022-10-06T01:40:52.443Z,88.41
2022-10-06T01:43:19.101Z,88.56
2022-10-06T01:45:45.537Z,88.14
2022-10-06T01:48:12.006Z,87.96
2022-10-06T01:50:41.151Z,87.56
2022-10-06T01:53:07.694Z,87.70
2022-10-06T01:55:34.184Z,87.51
2022-10-06T01:58:00.655Z,87.82
2022-10-06T02:00:27.139Z,87.56
2022-10-06T02:02:53.744Z,87.47
2022-10-06T02:05:20.204Z,87.25
2022-10-06T02:07:46.607Z,87.38
2022-10-06T02:10:13.063Z,87.28
2022-10-06T02:12:39.532Z,87.17
2022-10-06T02:15:06.574Z,87.14
2022-10-06T02:17:33.017Z,87.79
2022-10-06T02:19:59.426Z,87.29
2022-10-06T02:22:25.896Z,87.48
2022-10-06T02:24:52.324Z,87.32
2022-10-06T02:27:18.718Z,87.25
2022-10-06T02:29:45.164Z,87.36
2022-10-06T02:32:11.603Z,87.19
2022-10-06T02:34:38.376Z,87.30
2022-10-06T02:37:05.388Z,87.60
2022-10-06T02:39:31.830Z,87.79
2022-10-06T02:41:58.266Z,87.77
2022-10-06T02:44:25.245Z,87.68
2022-10-06T02:46:52.719Z,87.32
2022-10-06T02:49:19.174Z,87.46
2022-10-06T02:51:48.210Z,86.94
2022-10-06T02:54:15.440Z,86.82
2022-10-06T02:56:41.868Z,87.23
2022-10-06T02:59:08.262Z,87.12
2022-10-06T03:01:35.200Z,87.25
2022-10-06T03:04:01.722Z,87.49
2022-10-06T03:06:30.955Z,87.13
2022-10-06T03:09:02.478Z,87.36
2022-10-06T03:11:32.028Z,87.46
2022-10-06T03:13:59.331Z,87.51
2022-10-06T03:16:26.982Z,87.36
2022-10-06T03:18:55.465Z,87.50
2022-10-06T03:21:24.440Z,87.44
2022-10-06T03:23:53.393Z,87.25
2022-10-06T03:26:22.903Z,87.37
2022-10-06T03:28:49.539Z,87.60
2022-10-06T03:31:18.039Z,87.01
2022-10-06T03:33:44.645Z,87.20
2022-10-06T03:36:13.202Z,87.21
2022-10-06T03:38:39.924Z,87.50
2022-10-06T03:41:10.554Z,87.28
2022-10-06T03:43:38.236Z,87.41
2022-10-06T03:46:06.159Z,87.61
2022-10-06T03:48:34.924Z,87.43
2022-10-06T03:51:04.697Z,87.59
2022-10-06T03:53:32.533Z,87.70
2022-10-06T03:56:04.308Z,87.72
2022-10-06T03:58:33.104Z,87.90
2022-10-06T04:01:01.529Z,88.14
2022-10-06T04:03:28.485Z,87.83
2022-10-06T04:06:00.776Z,87.58
2022-10-06T04:08:28.889Z,87.99
2022-10-06T04:10:56.293Z,88.11
2022-10-06T04:13:22.859Z,88.01
2022-10-06T04:15:49.286Z,88.11
2022-10-06T04:18:16.155Z,88.19
2022-10-06T04:20:42.653Z,88.54
2022-10-06T04:23:09.547Z,88.63
2022-10-06T04:25:36.008Z,88.55
2022-10-06T04:28:02.475Z,88.68
2022-10-06T04:30:29.244Z,88.30
2022-10-06T04:32:55.821Z,88.04
2022-10-06T04:35:23.315Z,88.64
2022-10-06T04:37:50.139Z,88.48
2022-10-06T04:40:16.659Z,88.47
2022-10-06T04:42:43.322Z,88.20
2022-10-06T04:45:10.534Z,88.96
2022-10-06T04:47:37.049Z,88.95
2022-10-06T04:50:03.941Z,88.74
2022-10-06T04:52:30.350Z,88.65
2022-10-06T04:54:57.315Z,88.70
2022-10-06T04:57:23.808Z,88.70
2022-10-06T05:00:15.089Z,88.93
2022-10-06T05:02:41.907Z,88.55
2022-10-06T05:05:08.473Z,88.81
2022-10-06T05:07:34.928Z,89.38
2022-10-06T05:10:01.366Z,89.12
2022-10-06T05:12:31.036Z,89.20
2022-10-06T05:14:58.002Z,88.95
2022-10-06T05:17:24.488Z,89.04
2022-10-06T05:19:50.957Z,88.69
2022-10-06T05:22:17.404Z,89.33
2022-10-06T05:24:43.826Z,89.04
2022-10-06T05:27:10.314Z,89.53
2022-10-06T05:29:36.872Z,89.57
2022-10-06T05:32:03.437Z,89.67
2022-10-06T05:34:29.899Z,89.47
2022-10-06T05:36:56.377Z,89.34
2022-10-06T05:39:22.847Z,89.92
2022-10-06T05:41:49.967Z,89.59
2022-10-06T05:44:16.375Z,90.35
2022-10-06T05:46:42.786Z,90.20
2022-10-06T05:49:11.438Z,89.42
2022-10-06T05:51:41.087Z,89.56
2022-10-06T05:54:07.657Z,89.38
2022-10-06T05:56:36.518Z,89.92
2022-10-06T05:59:04.646Z,89.89
2022-10-06T06:01:34.853Z,89.95
2022-10-06T06:04:07.290Z,90.86
2022-10-06T06:06:44.568Z,89.78
2022-10-06T06:09:18.829Z,90.26
2022-10-06T06:11:48.020Z,90.41
2022-10-06T06:14:17.093Z,90.31
2022-10-06T06:16:44.603Z,90.67
2022-10-06T06:19:12.853Z,90.42
2022-10-06T06:21:39.887Z,90.36
2022-10-06T06:24:07.111Z,91.12
2022-10-06T06:26:36.910Z,90.52
2022-10-06T06:29:04.339Z,90.51
2022-10-06T06:31:33.452Z,91.04
2022-10-06T06:34:02.739Z,90.98
2022-10-06T06:36:35.591Z,91.20
2022-10-06T06:39:05.313Z,90.91
2022-10-06T06:41:37.577Z,90.69
2022-10-06T06:44:06.836Z,91.04
2022-10-06T06:46:36.790Z,91.54
2022-10-06T06:49:06.382Z,90.91
2022-10-06T06:51:37.851Z,91.54
2022-10-06T06:54:05.190Z,91.34
2022-10-06T06:56:34.849Z,91.38
2022-10-06T06:59:06.591Z,91.49
2022-10-06T07:01:33.075Z,91.43
2022-10-06T07:03:59.640Z,91.97
2022-10-06T07:06:28.723Z,91.61
2022-10-06T07:08:59.682Z,91.96
2022-10-06T07:11:31.814Z,91.35
2022-10-06T07:14:01.657Z,91.45
2022-10-06T07:16:48.558Z,91.70
2022-10-06T07:19:35.381Z,91.17
2022-10-06T07:22:26.481Z,91.44
2022-10-06T07:25:13.263Z,91.25
2022-10-06T07:27:45.215Z,91.55
2022-10-06T07:30:19.525Z,91.04
2022-10-06T07:32:50.489Z,90.90
2022-10-06T07:35:20.289Z,90.84
2022-10-06T07:37:47.916Z,90.77
2022-10-06T07:40:15.074Z,90.34
2022-10-06T07:42:48.263Z,90.52
2022-10-06T07:45:38.869Z,90.02
2022-10-06T07:48:07.873Z,89.89
2022-10-06T07:50:34.540Z,89.77
2022-10-06T07:53:07.651Z,89.43
2022-10-06T07:55:36.329Z,89.64
2022-10-06T07:58:02.923Z,89.15
2022-10-06T08:00:29.391Z,88.79
2022-10-06T08:02:55.995Z,88.29
2022-10-06T08:05:22.499Z,88.60
2022-10-06T08:07:48.938Z,88.45
2022-10-06T08:10:18.434Z,88.14
2022-10-06T08:12:44.938Z,88.38
2022-10-06T08:15:13.014Z,88.27
2022-10-06T08:17:40.077Z,87.72
2022-10-06T08:20:09.173Z,86.90
2022-10-06T08:22:38.817Z,86.56
2022-10-06T08:25:07.405Z,86.68
2022-10-06T08:27:35.354Z,85.76
2022-10-06T08:30:02.736Z,85.58
2022-10-06T08:32:30.050Z,85.14
2022-10-06T08:34:57.245Z,85.39
2022-10-06T08:37:24.556Z,84.34
2022-10-06T08:39:51.625Z,83.91
2022-10-06T08:42:26.630Z,83.77
2022-10-06T08:45:04.960Z,83.33
2022-10-06T08:47:35.879Z,82.69
2022-10-06T08:50:09.771Z,82.33
2022-10-06T08:52:48.492Z,82.27
2022-10-06T08:55:42.891Z,82.20
2022-10-06T08:58:37.231Z,82.21
2022-10-06T09:01:12.682Z,82.09
2022-10-06T09:03:39.385Z,80.06
2022-10-06T09:06:24.408Z,81.00
2022-10-06T09:08:56.538Z,81.31
2022-10-06T09:11:35.377Z,80.28
2022-10-06T09:14:14.897Z,80.55
2022-10-06T09:16:48.595Z,79.33
2022-10-06T09:19:31.449Z,79.31
2022-10-06T09:22:04.590Z,79.40
2022-10-06T09:24:37.339Z,78.71
2022-10-06T09:27:16.855Z,78.44
2022-10-06T09:29:43.397Z,77.30
2022-10-06T09:32:10.988Z,76.83
2022-10-06T09:34:42.772Z,76.96
2022-10-06T09:37:12.813Z,75.47
2022-10-06T09:39:41.617Z,74.84
2022-10-06T09:42:35.445Z,74.61
2022-10-06T09:45:16.981Z,74.62
2022-10-06T09:47:45.373Z,74.25
2022-10-06T09:50:22.638Z,73.45
2022-10-06T09:52:58.308Z,72.73
2022-10-06T09:55:29.743Z,74.13
2022-10-06T09:57:57.533Z,72.90
2022-10-06T10:00:38.676Z,72.22
2022-10-06T10:03:13.539Z,71.52
2022-10-06T10:05:48.067Z,70.89
2022-10-06T10:08:14.407Z,70.71
2022-10-06T10:10:41.237Z,72.47
2022-10-06T10:13:26.005Z,72.18
2022-10-06T10:15:53.675Z,72.58
2022-10-06T10:18:26.500Z,71.82
2022-10-06T10:21:00.965Z,73.13
2022-10-06T10:23:33.127Z,73.57
2022-10-06T10:26:08.228Z,70.60
2022-10-06T10:28:46.938Z,69.65
2022-10-06T10:31:39.050Z,68.42
2022-10-06T10:34:23.944Z,68.97
2022-10-06T10:37:21.914Z,66.52
2022-10-06T10:39:58.527Z,66.58
2022-10-06T10:42:35.137Z,66.71
2022-10-06T10:45:05.061Z,65.25
2022-10-06T10:47:36.664Z,65.53
2022-10-06T10:50:26.282Z,63.43
2022-10-06T10:52:58.237Z,61.72
2022-10-06T10:55:29.887Z,62.62
2022-10-06T10:58:01.436Z,62.82
2022-10-06T11:00:30.849Z,64.20
2022-10-06T11:02:58.849Z,62.79
2022-10-06T11:05:50.194Z,64.53
2022-10-06T11:08:35.962Z,62.98
2022-10-06T11:11:06.512Z,61.83
2022-10-06T11:13:40.771Z,61.29
2022-10-06T11:16:18.032Z,60.93
2022-10-06T11:19:03.018Z,62.54
2022-10-06T11:21:50.739Z,62.83
2022-10-06T11:24:40.127Z,62.67
2022-10-06T11:27:20.192Z,62.17
2022-10-06T11:30:04.213Z,62.61
2022-10-06T11:32:44.703Z,62.17
2022-10-06T11:35:24.056Z,62.69
2022-10-06T11:37:53.816Z,61.07
2022-10-06T11:40:38.576Z,60.57
2022-10-06T11:43:15.296Z,59.85
2022-10-06T11:45:55.134Z,59.64
2022-10-06T11:48:27.990Z,58.52
2022-10-06T11:50:58.087Z,58.34
2022-10-06T11:53:37.473Z,58.95
2022-10-06T11:56:23.989Z,58.27
2022-10-06T11:58:56.351Z,57.38
2022-10-06T12:01:32.444Z,57.87
2022-10-06T12:04:08.081Z,56.61
2022-10-06T12:06:46.835Z,55.54
2022-10-06T12:09:29.232Z,57.00
2022-10-06T12:11:59.817Z,56.93
2022-10-06T12:17:42.436Z,56.56
2022-10-06T12:20:26.365Z,57.94
2022-10-06T12:23:15.592Z,57.27
2022-10-06T12:25:55.284Z,56.64
2022-10-06T12:28:33.955Z,57.93
2022-10-06T12:31:19.527Z,57.38
2022-10-06T12:33:46.284Z,55.77
2022-10-06T12:36:19.001Z,56.29
2022-10-06T12:39:06.764Z,56.67
2022-10-06T12:42:01.280Z,55.60
2022-10-06T12:44:37.331Z,54.96
2022-10-06T12:47:22.660Z,53.45
2022-10-06T12:49:57.077Z,53.68
2022-10-06T12:52:53.776Z,54.33
2022-10-06T12:55:38.996Z,54.88
2022-10-06T12:58:07.888Z,54.46
2022-10-06T13:00:37.492Z,54.59
2022-10-06T13:03:07.157Z,54.34
2022-10-06T13:05:35.462Z,54.83
2022-10-06T13:08:04.830Z,56.48
2022-10-06T13:10:35.341Z,54.94
2022-10-06T13:13:01.877Z,55.05
2022-10-06T13:15:34.967Z,55.18
2022-10-06T13:18:13.033Z,54.81
2022-10-06T13:20:50.438Z,55.16
2022-10-06T13:23:27.694Z,54.46
2022-10-06T13:25:57.655Z,54.67
2022-10-06T13:28:34.242Z,54.32
2022-10-06T13:31:03.451Z,53.83
2022-10-06T13:33:38.388Z,53.68
2022-10-06T13:36:06.087Z,53.77
2022-10-06T13:38:35.079Z,54.94
2022-10-06T13:41:04.393Z,54.18
2022-10-06T13:43:34.100Z,54.47
2022-10-06T13:46:07.792Z,54.40
2022-10-06T13:48:34.730Z,52.97
2022-10-06T13:51:03.401Z,54.23
2022-10-06T13:53:31.792Z,52.71
2022-10-06T13:55:58.799Z,52.72
2022-10-06T13:58:27.893Z,53.94
2022-10-06T14:01:01.017Z,52.56
2022-10-06T14:03:28.401Z,51.92
2022-10-06T14:06:06.574Z,53.46
2022-10-06T14:08:33.807Z,53.02
2022-10-06T14:11:04.620Z,52.31
2022-10-06T14:13:39.440Z,53.29
2022-10-06T14:16:18.203Z,53.12
2022-10-06T14:21:41.941Z,53.43
2022-10-06T14:24:18.952Z,53.76
2022-10-06T14:26:47.103Z,51.77
2022-10-06T14:29:16.573Z,53.14
2022-10-06T14:31:44.278Z,53.09
2022-10-06T14:34:14.770Z,52.11
2022-10-06T14:36:43.656Z,52.98
2022-10-06T14:39:12.585Z,52.92
2022-10-06T14:41:39.225Z,52.87
2022-10-06T14:44:09.809Z,52.46
2022-10-06T14:46:37.985Z,53.63
2022-10-06T14:49:09.516Z,52.92
2022-10-06T14:51:37.395Z,52.14
2022-10-06T14:54:05.100Z,52.71
2022-10-06T14:56:33.823Z,53.51
2022-10-06T14:59:03.950Z,53.15
2022-10-06T15:01:33.327Z,53.21
2022-10-06T15:04:03.653Z,54.62
2022-10-06T15:06:48.617Z,55.42
2022-10-06T15:09:15.251Z,55.74
2022-10-06T15:11:42.099Z,54.32
2022-10-06T15:14:08.735Z,53.78
2022-10-06T15:16:39.262Z,54.18
2022-10-06T15:19:06.076Z,55.17
2022-10-06T15:21:33.412Z,55.02
2022-10-06T15:24:02.785Z,54.31
2022-10-06T15:26:48.885Z,55.06
2022-10-06T15:29:16.156Z,56.04
2022-10-06T15:31:45.451Z,56.23
2022-10-06T15:34:14.193Z,55.30
2022-10-06T15:36:42.615Z,54.33
2022-10-06T15:39:11.780Z,55.34
2022-10-06T15:41:40.609Z,55.39
2022-10-06T15:44:08.523Z,55.09
2022-10-06T15:46:36.082Z,55.00
2022-10-06T15:49:06.736Z,53.64
2022-10-06T15:51:42.912Z,55.00
2022-10-06T15:54:10.844Z,54.06
2022-10-06T15:56:38.200Z,54.39
2022-10-06T15:59:07.856Z,54.87
2022-10-06T16:01:35.677Z,55.64
2022-10-06T16:04:11.491Z,56.28
2022-10-06T16:06:50.217Z,55.97
2022-10-06T16:09:18.921Z,55.95
2022-10-06T16:11:47.173Z,56.36
2022-10-06T16:14:14.912Z,55.86
2022-10-06T16:16:43.859Z,55.78
2022-10-06T16:19:10.919Z,56.27
2022-10-06T16:21:38.572Z,56.95
2022-10-06T16:24:05.254Z,57.34
2022-10-06T16:26:31.837Z,57.45
2022-10-06T16:28:58.270Z,57.83
2022-10-06T16:31:25.137Z,58.03
2022-10-06T16:33:51.664Z,57.61
2022-10-06T16:36:19.315Z,58.46
2022-10-06T16:38:49.372Z,59.08
2022-10-06T16:41:15.793Z,59.28
2022-10-06T16:43:44.735Z,59.73
2022-10-06T16:46:13.891Z,59.89
2022-10-06T16:48:42.597Z,60.97
2022-10-06T16:51:14.952Z,61.31
2022-10-06T16:53:53.386Z,61.40
2022-10-06T16:56:27.331Z,61.72
2022-10-06T16:58:58.793Z,62.40
2022-10-06T17:01:28.036Z,62.98
2022-10-06T17:04:22.299Z,63.27
2022-10-06T17:06:50.537Z,64.47
2022-10-06T17:09:19.484Z,64.57
2022-10-06T17:11:51.577Z,65.12
2022-10-06T17:14:19.338Z,65.94
2022-10-06T17:16:46.855Z,66.05
2022-10-06T17:19:15.541Z,66.31
2022-10-06T17:21:48.113Z,66.44
2022-10-06T17:24:19.868Z,67.02
2022-10-06T17:26:49.094Z,66.81
2022-10-06T17:29:22.365Z,66.14
2022-10-06T17:31:55.964Z,66.58
2022-10-06T17:34:26.507Z,67.14
2022-10-06T17:36:54.538Z,67.06
2022-10-06T17:39:22.730Z,67.84
2022-10-06T17:41:52.533Z,67.77
2022-10-06T17:44:23.788Z,67.76
2022-10-06T17:46:53.800Z,68.04
2022-10-06T17:49:22.019Z,68.04
2022-10-06T17:51:49.550Z,68.44
2022-10-06T17:54:19.988Z,68.58
2022-10-06T17:56:48.936Z,68.69
2022-10-06T17:59:24.550Z,68.50
2022-10-06T18:01:53.961Z,68.52
2022-10-06T18:04:20.573Z,68.67
2022-10-06T18:06:47.661Z,68.79
2022-10-06T18:09:15.106Z,69.63
2022-10-06T18:11:44.287Z,69.38
2022-10-06T18:14:11.805Z,70.04
2022-10-06T18:16:39.683Z,70.02
2022-10-06T18:19:18.561Z,70.43
2022-10-06T18:21:47.827Z,70.16
2022-10-06T18:24:21.014Z,70.27
2022-10-06T18:26:53.137Z,70.47
2022-10-06T18:29:22.932Z,70.73
2022-10-06T18:31:51.468Z,71.15
2022-10-06T18:36:10.973Z,70.97
2022-10-06T18:37:04.612Z,71.50
2022-10-06T18:39:31.198Z,71.85
2022-10-06T18:41:59.144Z,72.12
2022-10-06T18:44:44.229Z,72.07
2022-10-06T18:47:29.238Z,72.30
2022-10-06T18:49:55.914Z,72.54
2022-10-06T18:52:22.663Z,72.83
2022-10-06T18:54:50.092Z,72.70
2022-10-06T18:57:16.923Z,72.80
2022-10-06T18:59:43.387Z,72.84
2022-10-06T19:02:10.982Z,72.73
2022-10-06T19:04:39.117Z,73.00
2022-10-06T19:07:05.974Z,73.23
2022-10-06T19:09:32.396Z,73.29
2022-10-06T19:11:58.881Z,73.62
2022-10-06T19:16:59.158Z,73.85
2022-10-06T19:19:27.456Z,74.06
2022-10-06T19:21:59.683Z,74.28
2022-10-06T19:24:38.081Z,74.74
2022-10-06T19:27:12.157Z,74.91
2022-10-06T19:29:42.438Z,75.39
2022-10-06T19:32:08.901Z,75.16
2022-10-06T19:34:37.325Z,75.38
2022-10-06T19:37:04.624Z,75.90
2022-10-06T19:39:35.177Z,75.58
2022-10-06T19:42:20.633Z,75.95
2022-10-06T19:44:47.077Z,75.77
2022-10-06T19:47:14.903Z,75.55
2022-10-06T19:49:41.968Z,75.91
2022-10-06T19:52:10.890Z,75.93
2022-10-06T19:54:38.593Z,75.95
2022-10-06T19:57:05.943Z,75.99
2022-10-06T19:59:33.065Z,76.21
2022-10-06T20:01:59.558Z,76.76
2022-10-06T20:04:26.244Z,76.78
2022-10-06T20:06:53.343Z,77.09
2022-10-06T20:09:22.148Z,77.11
2022-10-06T20:11:50.333Z,76.98
2022-10-06T20:14:21.155Z,77.21
2022-10-06T20:16:50.578Z,77.22
2022-10-06T20:19:18.439Z,77.16
2022-10-06T20:21:45.061Z,76.90
2022-10-06T20:24:22.526Z,77.43
2022-10-06T20:26:50.443Z,77.20
2022-10-06T20:29:23.343Z,77.39
2022-10-06T20:31:55.111Z,76.89
2022-10-06T20:34:24.658Z,77.02
2022-10-06T20:36:56.056Z,77.23
2022-10-06T20:39:42.893Z,76.87
2022-10-06T20:42:14.832Z,77.44
2022-10-06T20:44:42.195Z,76.92
2022-10-06T20:47:08.958Z,77.35
2022-10-06T20:49:35.681Z,77.67
2022-10-06T20:52:03.352Z,77.39
2022-10-06T20:54:36.192Z,76.97
2022-10-06T20:57:04.755Z,77.32
2022-10-06T20:59:31.905Z,77.83
2022-10-06T21:02:01.408Z,77.97
2022-10-06T21:04:28.144Z,78.08
2022-10-06T21:06:54.843Z,78.73
2022-10-06T21:09:21.603Z,78.52
2022-10-06T21:11:48.390Z,78.23
2022-10-06T21:14:15.816Z,78.68
2022-10-06T21:16:44.459Z,78.64
2022-10-06T21:19:19.271Z,78.77
2022-10-06T21:21:52.210Z,78.58
2022-10-06T21:24:20.401Z,78.10
2022-10-06T21:26:47.184Z,78.61
2022-10-06T21:29:16.229Z,78.35
2022-10-06T21:31:43.702Z,78.60
2022-10-06T21:34:10.663Z,78.51
2022-10-06T21:36:38.032Z,78.92
2022-10-06T21:39:05.933Z,78.51
2022-10-06T21:41:35.070Z,78.72
2022-10-06T21:44:07.238Z,78.89
2022-10-06T21:46:37.744Z,79.27
2022-10-06T21:49:12.361Z,79.22
2022-10-06T21:51:40.411Z,79.21
2022-10-06T21:54:07.443Z,79.43
2022-10-06T21:56:34.021Z,80.09
2022-10-06T21:59:00.533Z,79.64
2022-10-06T22:01:30.054Z,80.13
2022-10-06T22:03:57.941Z,80.05
2022-10-06T22:06:24.468Z,79.98
2022-10-06T22:08:50.967Z,79.99
2022-10-06T22:11:21.040Z,80.06
2022-10-06T22:13:50.285Z,79.57
2022-10-06T22:16:19.363Z,79.70
2022-10-06T22:18:46.675Z,80.24
2022-10-06T22:21:14.780Z,80.19
2022-10-06T22:23:43.269Z,80.06
2022-10-06T22:26:11.771Z,80.74
2022-10-06T22:28:39.048Z,79.98
2022-10-06T22:31:09.000Z,80.92
2022-10-06T22:33:38.730Z,80.76
2022-10-06T22:36:07.819Z,80.48
2022-10-06T22:38:34.904Z,80.54
2022-10-06T22:41:07.407Z,80.79
2022-10-06T22:43:34.599Z,81.09
2022-10-06T22:46:01.889Z,80.86
2022-10-06T22:48:28.921Z,80.82
2022-10-06T22:50:55.369Z,81.45
2022-10-06T22:53:24.253Z,80.72
2022-10-06T22:55:51.602Z,81.02
2022-10-06T22:58:18.847Z,80.82
2022-10-06T23:00:45.763Z,80.71
2022-10-06T23:03:12.454Z,81.50
2022-10-06T23:05:40.023Z,81.06
2022-10-06T23:08:07.717Z,81.21
2022-10-06T23:10:35.939Z,81.66
2022-10-06T23:13:02.987Z,82.07
2022-10-06T23:15:29.603Z,81.27
2022-10-06T23:17:56.098Z,81.56
2022-10-06T23:20:22.532Z,81.39
2022-10-06T23:22:49.043Z,81.46
2022-10-06T23:25:15.849Z,81.02
2022-10-06T23:27:42.677Z,81.31
2022-10-06T23:30:10.150Z,81.00
2022-10-06T23:32:37.528Z,81.52
2022-10-06T23:35:04.565Z,81.60
2022-10-06T23:37:31.082Z,81.57
2022-10-06T23:39:57.708Z,81.39
2022-10-06T23:42:24.180Z,81.78
2022-10-06T23:44:50.618Z,82.05
2022-10-06T23:47:17.143Z,81.26
2022-10-06T23:49:43.685Z,81.38
2022-10-06T23:52:10.185Z,81.43
2022-10-06T23:54:36.871Z,81.62
2022-10-06T23:57:04.237Z,81.98
2022-10-06T23:59:31.142Z,81.17
